KALS

San Luis Valley Regional / Bergman Field Airport

Alamosa, Colorado, USA
METAR KALS 092152Z AUTO 36011G21KT 10SM CLR 04/M12 A3032 RMK AO2 SLP295 T00441117
Observed Flight Rules
Dec-9 @ 21:52 UTC (50 minutes ago) Visual Flight Rules
Wind Visibility Clouds
360° at 11 knots
 Gusting to 21 knots
10 miles
  • Clear skies
Temperatures Readings
Current 4°C / 39°F
Dewpoint -12°C / 10°F
Humidity 30%
Altimeter 30.32" Hg
Pressure 1029.5 hPa
Elevation 2299
METAR KALS 092152Z AUTO 36011G21KT 10SM CLR 04/M12 A3032 RMK AO2 SLP295 T00441117
Observed Flight Rules
Dec-9 @ 21:52 UTC
(50 minutes ago)
VFR
Wind Visibility
360° at 11 knots
 Gusting to 21 knots
10 miles
Clouds
  • Clear skies
Temperature Dewpoint
4°C / 39°F -12°C / 10°F
Humidity Altimeter Pressure
30% 30.32" Hg 1029.5 hPa